Time;durP1;ratioP1;P1;durP2;ratioP2;P2;SDS_P1;SDS_P2;PMS_P1;PMS_P2;Temp;Humidity;BMP_temperature;BMP_pressure;BME280_temperature;BME280_humidity;BME280_pressure;Samples;Min_cycle;Max_cycle;Signal;HPM_P1;HPM_P2
2022/08/04 00:01:09;;;;;;;2.45;0.10;;;20.70;99.90;;;;;;5037065;28;20119;-75
2022/08/04 00:03:57;;;;;;;1.90;0.03;;;20.70;99.90;;;;;;5055378;28;20092;-74
2022/08/04 00:06:39;;;;;;;1.13;0.13;;;20.60;99.90;;;;;;5037112;28;20470;-74
2022/08/04 00:09:27;;;;;;;1.55;0.30;;;20.60;99.90;;;;;;5055320;28;20049;-74
2022/08/04 00:11:56;;;;;;;2.55;0.22;;;20.50;99.90;;;;;;5055271;28;20025;-74
2022/08/04 00:14:23;;;;;;;3.05;0.22;;;20.50;99.90;;;;;;5054582;28;20032;-75
2022/08/04 00:16:51;;;;;;;3.17;0.57;;;20.50;99.90;;;;;;5036618;28;20083;-75
2022/08/04 00:19:25;;;;;;;3.42;0.17;;;20.40;99.90;;;;;;5037008;28;20027;-75
2022/08/04 00:22:01;;;;;;;3.40;0.40;;;20.30;99.90;;;;;;5054862;28;20024;-75
2022/08/04 00:24:30;;;;;;;2.50;0.20;;;20.30;99.90;;;;;;5054706;28;20021;-74
2022/08/04 00:26:56;;;;;;;3.15;0.20;;;20.20;99.90;;;;;;5054535;28;20025;-74
2022/08/04 00:29:23;;;;;;;5.78;0.75;;;20.10;99.90;;;;;;5054844;28;20028;-74
2022/08/04 00:31:49;;;;;;;2.80;0.20;;;20.20;99.90;;;;;;5054938;28;20029;-74
2022/08/04 00:34:15;;;;;;;4.85;0.50;;;20.10;99.90;;;;;;5054535;28;20138;-74
2022/08/04 00:36:44;;;;;;;8.15;0.40;;;20.10;99.90;;;;;;5036323;28;20021;-74
2022/08/04 00:39:11;;;;;;;1.00;0.20;;;20.10;99.90;;;;;;5054343;28;20044;-74
2022/08/04 00:42:09;;;;;;;3.10;0.30;;;20.10;99.90;;;;;;5054569;28;20013;-74
2022/08/04 00:45:19;;;;;;;1.73;0.10;;;20.00;99.90;;;;;;5038097;28;20041;-74
2022/08/04 00:47:55;;;;;;;1.52;0.30;;;20.00;99.90;;;;;;5016353;28;20037;-74
2022/08/04 00:50:32;;;;;;;2.13;0.10;;;19.90;99.90;;;;;;5054001;28;20424;-75
2022/08/04 00:53:16;;;;;;;2.00;0.17;;;19.90;99.90;;;;;;5036685;28;20044;-75
2022/08/04 00:56:02;;;;;;;2.30;0.10;;;19.80;99.90;;;;;;5036488;28;20025;-74
2022/08/04 00:58:54;;;;;;;2.58;0.55;;;19.80;99.90;;;;;;5054838;28;20470;-74
2022/08/04 01:01:36;;;;;;;1.88;0.30;;;19.80;99.90;;;;;;5054401;28;20112;-75
2022/08/04 01:04:28;;;;;;;2.03;0.35;;;19.70;99.90;;;;;;5054451;28;20029;-74
2022/08/04 01:07:29;;;;;;;3.00;0.10;;;19.70;99.90;;;;;;5054747;28;20501;-74
2022/08/04 01:10:22;;;;;;;1.42;0.45;;;19.60;99.90;;;;;;5054719;28;20057;-74
2022/08/04 01:13:06;;;;;;;2.70;0.10;;;19.60;99.90;;;;;;5054266;28;20507;-74
2022/08/04 01:15:43;;;;;;;2.60;0.15;;;19.60;99.90;;;;;;5036155;28;20111;-74
2022/08/04 01:18:21;;;;;;;1.55;0.45;;;19.50;99.90;;;;;;5054311;28;20086;-74
2022/08/04 01:21:05;;;;;;;0.55;0.10;;;19.50;99.90;;;;;;5036893;28;20509;-74
2022/08/04 01:23:43;;;;;;;4.43;0.47;;;19.50;99.90;;;;;;5054108;28;20032;-74
2022/08/04 01:26:17;;;;;;;2.20;0.45;;;19.40;99.90;;;;;;5054248;28;20039;-74
2022/08/04 01:29:08;;;;;;;6.65;0.30;;;19.40;99.90;;;;;;5036284;28;20024;-74
2022/08/04 01:31:41;;;;;;;1.77;0.10;;;19.40;99.90;;;;;;5054196;28;20021;-74
2022/08/04 01:34:11;;;;;;;1.35;0.30;;;19.40;99.90;;;;;;5053978;28;20390;-74
2022/08/04 01:36:44;;;;;;;4.63;0.55;;;19.40;99.90;;;;;;5055026;28;20048;-74
2022/08/04 01:41:56;;;;;;;1.60;0.20;;;19.40;99.90;;;;;;5053971;28;20037;-74
2022/08/04 01:44:23;;;;;;;1.30;0.10;;;19.30;99.90;;;;;;5053893;28;20543;-74
2022/08/04 01:46:51;;;;;;;4.95;0.45;;;19.30;99.90;;;;;;5053900;28;20025;-74
2022/08/04 01:49:21;;;;;;;0.30;0.00;;;19.20;99.90;;;;;;5053890;28;20033;-74
2022/08/04 01:51:50;;;;;;;1.27;0.20;;;19.30;99.90;;;;;;5054080;28;20045;-74
2022/08/04 01:54:17;;;;;;;2.65;0.20;;;19.20;99.90;;;;;;5053852;28;20096;-74
2022/08/04 01:56:45;;;;;;;1.83;0.00;;;19.20;99.90;;;;;;5056426;28;20021;-75
2022/08/04 01:59:16;;;;;;;0.70;0.08;;;19.30;99.90;;;;;;5058225;28;20036;-74
2022/08/04 02:01:41;;;;;;;5.05;0.10;;;19.20;99.90;;;;;;5057318;28;20025;-74
2022/08/04 02:04:17;;;;;;;2.95;0.52;;;19.20;99.90;;;;;;5057531;28;20033;-74
2022/08/04 02:07:16;;;;;;;4.53;0.73;;;19.20;99.90;;;;;;5057397;28;20021;-74
2022/08/04 02:10:05;;;;;;;3.15;0.15;;;19.20;99.90;;;;;;5039378;28;20071;-75
2022/08/04 02:12:59;;;;;;;3.15;0.32;;;19.20;99.90;;;;;;5057277;28;20037;-74
2022/08/04 02:16:11;;;;;;;1.80;0.10;;;19.20;99.90;;;;;;5057695;28;20025;-75
2022/08/04 02:19:05;;;;;;;2.38;0.08;;;19.20;99.90;;;;;;5001959;28;20493;-75
2022/08/04 02:21:33;;;;;;;4.07;0.75;;;19.20;99.90;;;;;;5042861;28;20037;-75
2022/08/04 02:24:07;;;;;;;1.17;0.30;;;19.20;99.90;;;;;;5057613;28;20035;-74
2022/08/04 02:26:35;;;;;;;1.80;0.10;;;19.20;99.90;;;;;;5039381;28;20021;-75
2022/08/04 02:29:19;;;;;;;3.53;0.20;;;19.20;99.90;;;;;;5057035;28;20020;-74
2022/08/04 02:32:05;;;;;;;2.47;0.20;;;19.20;99.90;;;;;;5057198;28;20021;-74
2022/08/04 02:35:04;;;;;;;2.95;0.55;;;19.20;99.90;;;;;;5056840;28;20502;-74
2022/08/04 02:37:33;;;;;;;0.20;0.20;;;19.20;99.90;;;;;;5057050;28;20029;-74
2022/08/04 02:40:02;;;;;;;3.50;0.43;;;19.20;99.90;;;;;;5039327;28;20021;-74
2022/08/04 02:42:28;;;;;;;3.10;0.10;;;19.20;99.90;;;;;;5039013;28;20020;-74
2022/08/04 02:44:57;;;;;;;3.15;0.60;;;19.20;99.90;;;;;;5038547;28;20036;-74
2022/08/04 02:47:24;;;;;;;;;;;19.20;99.90;;;;;;5039267;28;20025;-74
2022/08/04 02:49:50;;;;;;;2.50;0.30;;;19.40;99.90;;;;;;5056295;28;20357;-74
2022/08/04 02:52:18;;;;;;;3.45;0.10;;;19.20;99.90;;;;;;5038658;28;20509;-74
2022/08/04 02:54:47;;;;;;;3.90;0.90;;;19.20;99.90;;;;;;5038717;28;20031;-74
2022/08/04 02:57:16;;;;;;;2.05;0.10;;;19.30;99.90;;;;;;5056469;28;20107;-74
2022/08/04 02:59:53;;;;;;;1.45;0.10;;;19.30;99.90;;;;;;5056375;28;20028;-74
2022/08/04 03:02:27;;;;;;;2.67;0.10;;;19.30;99.90;;;;;;5038618;28;20086;-74
2022/08/04 03:05:28;;;;;;;1.65;0.22;;;19.30;99.90;;;;;;5056253;28;20021;-74
2022/08/04 03:08:44;;;;;;;1.60;0.10;;;19.30;99.90;;;;;;5041969;28;20049;-76
2022/08/04 03:11:12;;;;;;;0.98;0.25;;;19.20;99.90;;;;;;5056408;28;20029;-75
2022/08/04 03:13:47;;;;;;;2.13;0.47;;;19.20;99.90;;;;;;5056232;28;20029;-74
2022/08/04 03:16:38;;;;;;;3.00;0.10;;;19.20;99.90;;;;;;5056188;28;20500;-74
2022/08/04 03:19:30;;;;;;;0.95;0.10;;;19.20;99.90;;;;;;5025309;28;20086;-75
2022/08/04 03:22:27;;;;;;;2.53;0.03;;;19.20;99.90;;;;;;5056576;28;20076;-74
2022/08/04 03:25:24;;;;;;;2.60;0.90;;;19.20;99.90;;;;;;5037896;28;20027;-74
2022/08/04 03:28:02;;;;;;;0.90;0.50;;;19.20;99.90;;;;;;5037738;28;20489;-74
2022/08/04 03:30:48;;;;;;;0.55;0.10;;;19.20;99.90;;;;;;5055979;28;20104;-74
2022/08/04 03:33:40;;;;;;;6.40;0.20;;;19.20;99.90;;;;;;5037847;28;20028;-74
2022/08/04 03:36:32;;;;;;;7.13;0.38;;;19.20;99.90;;;;;;5055486;28;20029;-74
2022/08/04 03:39:04;;;;;;;2.22;0.20;;;19.20;99.90;;;;;;5024866;28;20486;-74
2022/08/04 03:42:02;;;;;;;6.20;0.25;;;19.20;99.90;;;;;;5037598;28;20021;-74
2022/08/04 03:44:45;;;;;;;7.55;0.40;;;19.10;99.90;;;;;;5055670;28;20033;-74
2022/08/04 03:47:48;;;;;;;1.42;0.10;;;19.20;99.90;;;;;;5055742;28;20385;-74
2022/08/04 03:50:32;;;;;;;1.02;0.03;;;19.20;99.90;;;;;;5055723;28;20025;-74
2022/08/04 03:53:19;;;;;;;2.20;0.30;;;19.20;99.90;;;;;;5055762;28;20029;-74
2022/08/04 03:56:10;;;;;;;3.40;0.10;;;19.10;99.90;;;;;;5055705;28;20378;-74
2022/08/04 03:59:06;;;;;;;3.55;0.30;;;19.10;99.90;;;;;;5055652;28;20017;-74
2022/08/04 04:02:04;;;;;;;1.75;0.20;;;19.10;99.90;;;;;;5037060;28;20402;-74
2022/08/04 04:05:07;;;;;;;1.88;0.10;;;19.10;99.90;;;;;;5037560;28;20036;-74
2022/08/04 04:07:56;;;;;;;1.27;0.10;;;19.20;99.90;;;;;;5055428;28;20482;-75
2022/08/04 04:10:52;;;;;;;1.20;0.75;;;19.20;99.90;;;;;;5055286;28;20074;-75
2022/08/04 04:13:33;;;;;;;4.55;0.22;;;19.10;99.90;;;;;;5054914;28;20170;-75
2022/08/04 04:16:14;;;;;;;1.80;0.15;;;19.10;99.90;;;;;;5055354;28;20167;-75
2022/08/04 04:18:55;;;;;;;9.80;0.70;;;19.10;99.90;;;;;;5036794;28;20028;-75
2022/08/04 04:21:55;;;;;;;2.78;0.90;;;19.10;99.90;;;;;;5037203;28;20166;-75
2022/08/04 04:24:35;;;;;;;2.38;0.10;;;19.00;99.90;;;;;;5054757;28;20036;-75
2022/08/04 04:27:31;;;;;;;2.00;0.73;;;19.00;99.90;;;;;;5037039;28;20547;-75
2022/08/04 04:30:10;;;;;;;3.85;0.63;;;19.00;99.90;;;;;;5055088;28;20032;-75
2022/08/04 04:33:09;;;;;;;4.80;0.70;;;19.00;99.90;;;;;;5054762;28;20024;-75
2022/08/04 04:36:12;;;;;;;8.13;0.43;;;19.10;99.90;;;;;;5054944;28;20043;-75
2022/08/04 04:39:00;;;;;;;5.78;0.10;;;19.10;99.90;;;;;;5054675;28;20025;-75
2022/08/04 04:41:43;;;;;;;3.65;0.20;;;19.20;99.90;;;;;;5036552;28;20020;-75
2022/08/04 04:44:52;;;;;;;1.48;0.20;;;19.20;99.90;;;;;;5054916;28;20025;-75
2022/08/04 04:47:53;;;;;;;2.78;0.40;;;19.30;99.90;;;;;;5036463;28;20037;-75
2022/08/04 04:50:42;;;;;;;2.55;0.40;;;19.40;99.90;;;;;;5024044;28;20037;-75
2022/08/04 04:53:37;;;;;;;5.30;0.40;;;19.50;99.90;;;;;;5036243;28;20017;-75
2022/08/04 04:56:10;;;;;;;3.33;0.35;;;19.60;99.90;;;;;;5054510;28;20534;-75
2022/08/04 04:58:38;;;;;;;1.17;0.43;;;19.70;99.90;;;;;;5054265;28;20028;-75
2022/08/04 05:01:22;;;;;;;3.47;0.65;;;19.80;99.90;;;;;;5036454;28;20018;-75
2022/08/04 05:04:08;;;;;;;1.65;0.10;;;19.90;99.90;;;;;;5036041;28;20028;-75
2022/08/04 05:06:55;;;;;;;2.15;0.30;;;20.00;99.90;;;;;;5053798;28;20033;-75
2022/08/04 05:09:41;;;;;;;6.85;0.40;;;20.20;99.90;;;;;;5053595;28;20535;-74
2022/08/04 05:12:28;;;;;;;1.40;0.47;;;20.30;99.90;;;;;;5053580;28;20433;-75
2022/08/04 05:14:57;;;;;;;1.02;0.13;;;20.40;99.90;;;;;;5053753;28;20120;-75
2022/08/04 05:17:37;;;;;;;4.55;0.40;;;20.50;99.90;;;;;;5054039;28;20014;-74
2022/08/04 05:20:25;;;;;;;2.30;0.17;;;20.60;99.90;;;;;;5053622;28;20033;-75
2022/08/04 05:23:17;;;;;;;1.00;0.20;;;20.70;99.90;;;;;;5054085;28;20036;-75
2022/08/04 05:26:15;;;;;;;1.63;0.40;;;20.80;99.90;;;;;;5049580;28;20036;-75
2022/08/04 05:28:47;;;;;;;1.43;0.20;;;20.90;99.90;;;;;;5053567;28;20083;-75
2022/08/04 05:31:21;;;;;;;3.78;0.40;;;20.90;99.90;;;;;;5037930;28;20025;-75
2022/08/04 05:34:20;;;;;;;4.10;0.75;;;20.90;99.90;;;;;;5058115;28;20071;-75
2022/08/04 05:36:49;;;;;;;1.40;0.20;;;21.00;99.90;;;;;;5042489;28;20112;-75
2022/08/04 05:39:20;;;;;;;1.08;0.45;;;21.10;99.90;;;;;;5039679;28;20044;-75
2022/08/04 05:41:46;;;;;;;5.32;0.20;;;21.10;99.90;;;;;;5057490;28;20017;-75
2022/08/04 05:44:17;;;;;;;4.70;0.40;;;21.30;99.90;;;;;;5057525;28;20060;-75
2022/08/04 05:46:48;;;;;;;1.35;0.20;;;21.20;99.90;;;;;;5039600;28;20111;-75
2022/08/04 05:49:15;;;;;;;0.85;0.17;;;21.30;99.90;;;;;;5039479;28;20505;-75
2022/08/04 05:51:42;;;;;;;10.57;0.68;;;21.30;99.90;;;;;;5038991;28;20021;-75
2022/08/04 05:54:09;;;;;;;4.05;0.32;;;21.40;99.90;;;;;;5039135;28;20055;-75
2022/08/04 05:56:36;;;;;;;2.00;0.10;;;21.50;99.90;;;;;;5057072;28;20025;-75
2022/08/04 05:59:04;;;;;;;3.70;0.35;;;21.50;99.90;;;;;;5057520;28;20481;-75
2022/08/04 06:01:31;;;;;;;5.88;0.95;;;21.50;99.90;;;;;;5057060;28;20035;-75
2022/08/04 06:03:59;;;;;;;5.10;0.30;;;21.70;99.90;;;;;;5039503;28;20025;-75
2022/08/04 06:06:25;;;;;;;1.55;0.25;;;21.70;99.90;;;;;;5039463;28;20021;-75
2022/08/04 06:08:53;;;;;;;4.57;0.30;;;21.80;99.90;;;;;;5057241;28;20029;-75
2022/08/04 06:11:21;;;;;;;0.83;0.00;;;21.80;99.90;;;;;;5057059;28;20464;-75
2022/08/04 06:13:52;;;;;;;1.55;0.22;;;21.90;99.90;;;;;;5056901;28;20025;-75
2022/08/04 06:16:25;;;;;;;2.92;0.30;;;22.00;99.90;;;;;;5039362;28;20044;-75
2022/08/04 06:18:56;;;;;;;3.58;0.10;;;22.10;99.90;;;;;;5039932;28;20029;-75
2022/08/04 06:21:25;;;;;;;3.45;0.32;;;22.20;99.90;;;;;;5056402;28;20020;-75
2022/08/04 06:23:53;;;;;;;5.32;0.70;;;22.20;99.90;;;;;;5038853;28;20025;-75
2022/08/04 06:26:19;;;;;;;3.97;0.40;;;22.30;99.90;;;;;;5038684;28;20021;-75
2022/08/04 06:28:48;;;;;;;5.03;0.40;;;22.30;99.90;;;;;;5056365;28;20433;-75
2022/08/04 06:31:30;;;;;;;2.13;0.20;;;22.40;99.90;;;;;;5056406;28;20025;-75
2022/08/04 06:34:00;;;;;;;1.45;0.43;;;22.40;99.90;;;;;;5056227;28;20537;-75
2022/08/04 06:36:26;;;;;;;2.97;0.50;;;22.40;99.90;;;;;;5056618;28;20024;-75
2022/08/04 06:38:53;;;;;;;2.85;0.98;;;22.50;99.90;;;;;;5056308;28;20021;-75
2022/08/04 06:41:19;;;;;;;2.15;0.20;;;22.60;99.90;;;;;;5055921;28;20557;-75
2022/08/04 06:43:45;;;;;;;2.33;0.38;;;22.70;99.90;;;;;;5056583;28;20089;-75
2022/08/04 06:46:12;;;;;;;0.60;0.15;;;22.80;99.90;;;;;;5038451;28;20036;-75
2022/08/04 06:48:38;;;;;;;2.17;0.10;;;22.80;99.90;;;;;;5038430;28;20029;-75
2022/08/04 06:51:07;;;;;;;4.15;0.50;;;22.90;99.90;;;;;;5057019;28;20025;-75
2022/08/04 06:53:32;;;;;;;2.72;0.20;;;22.90;99.90;;;;;;5056163;28;20025;-75
2022/08/04 06:56:00;;;;;;;3.30;0.20;;;22.90;99.90;;;;;;5038164;28;20036;-75
2022/08/04 06:58:29;;;;;;;1.20;0.15;;;22.90;99.90;;;;;;5055797;28;20386;-75
2022/08/04 07:01:00;;;;;;;3.25;0.10;;;23.00;99.90;;;;;;5056098;28;20017;-75
2022/08/04 07:03:26;;;;;;;3.08;0.13;;;23.00;99.90;;;;;;5055791;28;20032;-75
2022/08/04 07:05:52;;;;;;;2.40;0.28;;;23.00;99.90;;;;;;5037883;28;20393;-75
2022/08/04 07:08:19;;;;;;;4.28;0.10;;;23.00;99.90;;;;;;5037703;28;20123;-75
2022/08/04 07:10:46;;;;;;;2.55;0.40;;;23.10;99.90;;;;;;5060059;23;20396;-75
2022/08/04 07:13:12;;;;;;;2.95;0.50;;;23.40;99.90;;;;;;5075690;28;20032;-75
2022/08/04 07:15:42;;;;;;;3.33;0.17;;;23.60;99.90;;;;;;5075725;28;20488;-75
2022/08/04 07:18:08;;;;;;;3.67;0.17;;;21.20;99.90;;;;;;5076189;28;20069;-75
2022/08/04 07:20:34;;;;;;;4.85;0.10;;;23.80;99.90;;;;;;5075359;28;20115;-75
2022/08/04 07:23:00;;;;;;;2.00;0.10;;;27.60;99.90;;;;;;5074277;28;20021;-75
2022/08/04 07:25:27;;;;;;;2.38;0.30;;;23.70;99.90;;;;;;5074066;28;20473;-75
2022/08/04 07:27:52;;;;;;;1.08;0.00;;;23.80;99.90;;;;;;5074094;28;20020;-75
2022/08/04 07:30:18;;;;;;;1.92;0.20;;;24.00;99.90;;;;;;5075135;28;20021;-75
2022/08/04 07:32:45;;;;;;;6.07;0.73;;;23.30;99.90;;;;;;5075558;28;20012;-75
2022/08/04 07:35:12;;;;;;;0.63;0.10;;;23.70;99.90;;;;;;5075043;28;20047;-75
2022/08/04 07:37:38;;;;;;;7.15;0.10;;;23.70;99.90;;;;;;5075617;28;20020;-75
2022/08/04 07:40:05;;;;;;;2.75;0.15;;;23.60;99.90;;;;;;5074992;28;20028;-75
2022/08/04 07:42:31;;;;;;;3.50;0.30;;;23.80;99.90;;;;;;5073372;28;20035;-75
2022/08/04 07:44:57;;;;;;;3.53;0.10;;;23.90;99.90;;;;;;5073585;28;20404;-75
2022/08/04 07:47:23;;;;;;;2.97;0.43;;;24.10;99.90;;;;;;5073714;28;20056;-75
2022/08/04 07:49:49;;;;;;;2.78;0.43;;;26.80;99.90;;;;;;5074714;28;20058;-75
2022/08/04 07:52:15;;;;;;;3.80;0.20;;;27.10;99.90;;;;;;5074725;28;20115;-77
2022/08/04 07:54:41;;;;;;;2.67;0.40;;;24.20;99.90;;;;;;5073696;28;20082;-77
2022/08/04 07:57:07;;;;;;;3.03;0.25;;;24.40;99.90;;;;;;5073203;28;20385;-77
2022/08/04 07:59:34;;;;;;;3.67;0.55;;;24.50;99.90;;;;;;5074384;28;20042;-78
2022/08/04 08:02:01;;;;;;;4.03;0.47;;;24.70;99.90;;;;;;5074228;28;20069;-77
2022/08/04 08:04:28;;;;;;;3.80;0.65;;;24.80;99.90;;;;;;5073024;28;20032;-77
2022/08/04 08:06:54;;;;;;;3.80;0.20;;;24.90;99.90;;;;;;5074525;28;20461;-77
2022/08/04 08:09:22;;;;;;;2.78;0.20;;;25.00;99.90;;;;;;5074266;28;20020;-77
2022/08/04 08:11:50;;;;;;;4.80;1.00;;;25.10;99.90;;;;;;5074057;28;20039;-77
2022/08/04 08:14:17;;;;;;;5.05;0.93;;;25.20;99.90;;;;;;5074215;28;20381;-77
2022/08/04 08:16:43;;;;;;;2.92;0.00;;;25.30;99.90;;;;;;5072765;28;20024;-77
2022/08/04 08:19:10;;;;;;;2.88;0.43;;;25.40;99.90;;;;;;5073971;28;20020;-77
2022/08/04 08:21:36;;;;;;;2.28;0.25;;;25.60;99.90;;;;;;5074304;28;20486;-77
2022/08/04 08:24:02;;;;;;;2.40;0.63;;;25.80;99.90;;;;;;5073930;28;20024;-77
2022/08/04 08:26:27;;;;;;;4.53;0.30;;;25.90;99.90;;;;;;5073954;28;20018;-77
2022/08/04 08:28:53;;;;;;;2.08;0.30;;;26.00;99.90;;;;;;5073977;28;20028;-77
2022/08/04 08:31:19;;;;;;;3.20;0.00;;;26.10;99.90;;;;;;5072512;28;20021;-77
2022/08/04 08:33:45;;;;;;;4.22;0.60;;;26.20;99.90;;;;;;5072455;28;20487;-77
2022/08/04 08:36:20;;;;;;;8.95;5.07;;;26.30;99.90;;;;;;5073828;28;20020;-77
2022/08/04 08:39:05;;;;;;;1.65;0.25;;;26.50;99.90;;;;;;5072458;28;20077;-77
2022/08/04 08:41:55;;;;;;;3.75;0.10;;;26.50;99.90;;;;;;5072799;28;20065;-77
2022/08/04 08:44:45;;;;;;;0.65;0.00;;;26.60;99.90;;;;;;5072568;28;20032;-77
2022/08/04 08:47:33;;;;;;;0.90;0.10;;;26.90;99.90;;;;;;5072472;28;20032;-77
2022/08/04 08:50:36;;;;;;;1.37;0.00;;;27.00;99.90;;;;;;5073852;28;20054;-78
2022/08/04 08:53:23;;;;;;;2.97;0.25;;;26.90;99.90;;;;;;5074183;28;20073;-77
2022/08/04 08:56:01;;;;;;;1.13;0.00;;;26.90;99.90;;;;;;5073860;28;20044;-77
2022/08/04 08:58:34;;;;;;;1.73;0.35;;;26.80;99.90;;;;;;5072471;28;20029;-77
2022/08/04 09:01:13;;;;;;;3.53;0.30;;;26.80;99.90;;;;;;5072530;28;20017;-77
2022/08/04 09:04:00;;;;;;;2.38;0.00;;;26.90;99.90;;;;;;5072543;28;20374;-77
2022/08/04 09:07:03;;;;;;;3.45;0.25;;;27.10;99.90;;;;;;5073993;28;20029;-78
2022/08/04 09:10:11;;;;;;;3.70;0.00;;;27.30;99.90;;;;;;5072475;28;20029;-78
2022/08/04 09:12:58;;;;;;;3.45;0.00;;;27.40;99.90;;;;;;5064153;28;20101;-77
2022/08/04 09:15:40;;;;;;;1.67;0.00;;;27.50;99.90;;;;;;5074488;28;20499;-77
2022/08/04 09:18:22;;;;;;;1.05;0.20;;;27.60;99.90;;;;;;5072566;28;20097;-78
2022/08/04 09:20:52;;;;;;;0.57;0.00;;;27.60;99.90;;;;;;5073826;28;20082;-78
2022/08/04 09:23:39;;;;;;;3.85;0.00;;;27.90;99.90;;;;;;5073880;28;20036;-77
2022/08/04 09:26:24;;;;;;;1.65;0.00;;;28.10;99.90;;;;;;5074495;28;20025;-78
2022/08/04 09:29:11;;;;;;;2.08;0.00;;;28.30;99.90;;;;;;5072744;28;20477;-78
2022/08/04 09:31:56;;;;;;;2.53;0.00;;;28.40;99.60;;;;;;5072880;28;20037;-78
2022/08/04 09:34:44;;;;;;;1.08;0.13;;;28.40;99.90;;;;;;5073405;28;20025;-78
2022/08/04 09:37:40;;;;;;;1.58;0.10;;;28.50;99.10;;;;;;5074586;28;20099;-78
2022/08/04 09:40:20;;;;;;;0.65;0.10;;;28.70;99.10;;;;;;5074771;28;20082;-78
2022/08/04 09:43:01;;;;;;;1.20;0.13;;;29.00;98.30;;;;;;5073189;28;20050;-78
2022/08/04 09:45:35;;;;;;;2.30;0.00;;;29.00;99.00;;;;;;5074892;28;20040;-78
2022/08/04 09:48:12;;;;;;;3.55;0.38;;;29.00;97.60;;;;;;5073781;28;20067;-78
2022/08/04 09:50:42;;;;;;;0.38;0.00;;;29.00;98.30;;;;;;5075167;28;20020;-77
2022/08/04 09:53:35;;;;;;;0.60;0.00;;;29.00;98.20;;;;;;5072902;28;20029;-78
2022/08/04 09:56:00;;;;;;;1.45;0.00;;;28.90;96.20;;;;;;5074350;28;20032;-78
2022/08/04 09:58:54;;;;;;;1.65;0.15;;;28.70;95.80;;;;;;5074132;28;20461;-78
2022/08/04 10:01:23;;;;;;;2.60;0.00;;;28.50;96.10;;;;;;5074498;28;20052;-78
2022/08/04 10:04:11;;;;;;;1.27;0.00;;;28.40;97.00;;;;;;5073928;28;20531;-78
2022/08/04 10:06:55;;;;;;;1.45;0.20;;;28.20;96.60;;;;;;5071725;28;20119;-78
2022/08/04 10:09:30;;;;;;;1.65;0.00;;;27.90;96.80;;;;;;5074146;28;20450;-78
2022/08/04 10:12:25;;;;;;;2.47;0.00;;;27.70;97.80;;;;;;5073938;28;20575;-78
2022/08/04 10:14:52;;;;;;;2.92;0.00;;;27.40;97.80;;;;;;5073925;28;20035;-78
2022/08/04 10:17:27;;;;;;;1.02;0.17;;;27.30;98.50;;;;;;5074109;28;20086;-78
2022/08/04 10:20:23;;;;;;;1.02;0.00;;;27.20;99.30;;;;;;5075718;28;20017;-78
2022/08/04 10:23:13;;;;;;;2.05;0.00;;;27.10;99.10;;;;;;5055689;28;20120;-78
2022/08/04 10:26:04;;;;;;;1.40;0.08;;;27.00;99.60;;;;;;5075733;28;20524;-78
2022/08/04 10:28:34;;;;;;;1.15;0.00;;;26.90;99.50;;;;;;5071115;28;20397;-78
2022/08/04 10:31:05;;;;;;;1.95;0.00;;;26.70;99.80;;;;;;5076838;28;20130;-78
2022/08/04 10:33:43;;;;;;;1.05;0.00;;;26.60;99.90;;;;;;5075297;28;20063;-78
2022/08/04 10:36:11;;;;;;;1.08;0.00;;;26.40;99.90;;;;;;5075266;28;20485;-78
2022/08/04 10:38:54;;;;;;;0.45;0.00;;;26.10;99.90;;;;;;5076722;28;20056;-78
2022/08/04 10:41:30;;;;;;;2.15;0.00;;;26.10;99.90;;;;;;5076174;28;20016;-77
2022/08/04 10:44:42;;;;;;;0.90;0.15;;;26.00;99.90;;;;;;5075285;28;20565;-77
2022/08/04 10:47:16;;;;;;;0.32;0.00;;;26.00;99.90;;;;;;5034392;28;20044;-77
2022/08/04 10:49:51;;;;;;;0.45;0.00;;;26.00;99.90;;;;;;5034414;28;20134;-78
2022/08/04 10:52:29;;;;;;;1.50;0.00;;;26.00;99.90;;;;;;5061254;28;20047;-78
2022/08/04 10:55:06;;;;;;;1.45;0.00;;;26.00;99.90;;;;;;5074964;28;20024;-78
2022/08/04 10:57:50;;;;;;;1.38;0.10;;;26.00;99.90;;;;;;5076191;28;20133;-77
2022/08/04 11:00:25;;;;;;;4.00;0.15;;;26.10;99.90;;;;;;5074659;28;20481;-78
2022/08/04 11:02:50;;;;;;;1.42;0.00;;;26.20;99.90;;;;;;5076113;28;20178;-78
2022/08/04 11:05:45;;;;;;;0.55;0.20;;;26.30;99.90;;;;;;5076074;28;20070;-78
2022/08/04 11:08:15;;;;;;;0.45;0.00;;;26.50;99.90;;;;;;5070997;28;20075;-78
2022/08/04 11:11:19;;;;;;;1.63;0.20;;;26.60;99.90;;;;;;5076033;28;20040;-78
2022/08/04 11:13:51;;;;;;;0.68;0.17;;;26.70;99.30;;;;;;5025175;28;20036;-78
2022/08/04 11:16:31;;;;;;;0.00;0.00;;;26.80;99.20;;;;;;5076195;28;20028;-78
2022/08/04 11:19:30;;;;;;;1.30;0.25;;;27.00;96.90;;;;;;5074498;28;20025;-78
2022/08/04 11:22:08;;;;;;;0.63;0.00;;;27.20;97.80;;;;;;5074642;28;20025;-78
2022/08/04 11:24:49;;;;;;;1.23;0.25;;;27.50;98.00;;;;;;5076836;28;20480;-78
2022/08/04 11:27:24;;;;;;;0.80;0.00;;;28.00;96.00;;;;;;5075452;28;20052;-78
2022/08/04 11:29:59;;;;;;;0.57;0.30;;;28.60;95.50;;;;;;5076233;28;20052;-78
2022/08/04 11:32:35;;;;;;;0.52;0.00;;;29.10;94.90;;;;;;5076804;28;20020;-78
2022/08/04 11:35:05;;;;;;;0.47;0.00;;;29.50;92.20;;;;;;5076837;28;20500;-79
2022/08/04 11:37:50;;;;;;;0.82;0.13;;;29.80;92.20;;;;;;5077011;28;20042;-78
2022/08/04 11:40:26;;;;;;;0.45;0.00;;;30.00;90.80;;;;;;5076469;28;20021;-78
2022/08/04 11:42:59;;;;;;;2.92;0.00;;;29.90;89.60;;;;;;5076822;28;20020;-78
2022/08/04 11:45:40;;;;;;;0.25;0.00;;;29.90;89.70;;;;;;5076715;28;20035;-78
2022/08/04 11:48:16;;;;;;;2.15;0.20;;;29.60;88.40;;;;;;5075165;28;20113;-79
2022/08/04 11:50:51;;;;;;;0.10;0.10;;;29.30;90.60;;;;;;5076588;28;20511;-78
2022/08/04 11:53:25;;;;;;;0.70;0.00;;;29.20;91.00;;;;;;5074891;28;20051;-79
2022/08/04 11:55:57;;;;;;;0.10;0.00;;;29.20;91.20;;;;;;5076549;28;20036;-78
2022/08/04 11:58:23;;;;;;;1.33;0.00;;;29.50;92.20;;;;;;5075492;28;20023;-78
2022/08/04 12:01:10;;;;;;;1.75;0.03;;;29.70;90.10;;;;;;5076829;28;20568;-78
2022/08/04 12:03:44;;;;;;;;;;;30.10;90.40;;;;;;5077617;28;20489;-78
2022/08/04 12:06:26;;;;;;;0.20;0.08;;;30.60;90.10;;;;;;5076108;28;19905;-78
2022/08/04 12:09:04;;;;;;;1.98;0.00;;;30.80;87.70;;;;;;5075831;28;20024;-78
2022/08/04 12:11:44;;;;;;;0.25;0.00;;;30.90;87.00;;;;;;5077108;28;20086;-78
2022/08/04 12:14:37;;;;;;;0.75;0.00;;;31.10;88.40;;;;;;5077280;28;20382;-78
2022/08/04 12:17:05;;;;;;;0.80;0.38;;;31.00;81.50;;;;;;5077959;28;20020;-78
2022/08/04 12:19:37;;;;;;;2.83;0.00;;;31.20;84.30;;;;;;5077654;28;20017;-78
2022/08/04 12:22:08;;;;;;;0.30;0.00;;;31.40;85.00;;;;;;5075991;28;20092;-78
2022/08/04 12:24:41;;;;;;;0.52;0.00;;;31.70;82.00;;;;;;5075026;28;20564;-78
2022/08/04 12:27:15;;;;;;;1.33;0.13;;;31.70;79.40;;;;;;5077450;28;20447;-78
2022/08/04 12:29:41;;;;;;;3.90;0.00;;;31.90;79.00;;;;;;5078034;28;20056;-78
2022/08/04 12:32:15;;;;;;;0.55;0.10;;;31.90;79.30;;;;;;5075531;28;20111;-78
2022/08/04 12:35:08;;;;;;;2.70;0.00;;;32.20;77.30;;;;;;5075890;28;20549;-78
2022/08/04 12:38:03;;;;;;;0.70;0.00;;;32.30;75.60;;;;;;5074079;28;20486;-78
2022/08/04 12:40:36;;;;;;;2.67;0.00;;;32.20;72.30;;;;;;5073826;28;20025;-78
2022/08/04 12:43:13;;;;;;;2.25;0.13;;;32.30;74.20;;;;;;5075369;28;20067;-78
2022/08/04 12:45:50;;;;;;;2.88;0.00;;;32.50;74.90;;;;;;5075944;28;20024;-78
2022/08/04 12:48:17;;;;;;;0.08;0.00;;;32.20;70.30;;;;;;5073483;28;20024;-78
2022/08/04 12:50:55;;;;;;;0.63;0.00;;;31.90;73.10;;;;;;5073680;28;20024;-78
2022/08/04 12:53:25;;;;;;;;;;;32.10;73.40;;;;;;5075876;28;20266;-78
2022/08/04 12:55:52;;;;;;;0.10;0.00;;;32.60;72.20;;;;;;5075099;28;20357;-78
2022/08/04 12:58:22;;;;;;;1.87;0.10;;;33.10;73.00;;;;;;5075600;28;20050;-78
2022/08/04 13:01:10;;;;;;;2.78;0.00;;;33.20;67.90;;;;;;5075137;28;20274;-78
2022/08/04 13:03:40;;;;;;;;;;;33.10;67.70;;;;;;5075899;28;20381;-78
2022/08/04 13:06:09;;;;;;;0.50;0.00;;;33.10;67.60;;;;;;5075888;28;20388;-78
2022/08/04 13:08:37;;;;;;;0.30;0.15;;;32.90;67.00;;;;;;5074283;28;20092;-78
2022/08/04 13:11:04;;;;;;;2.40;0.00;;;33.10;69.50;;;;;;5074909;28;20043;-78
2022/08/04 13:13:34;;;;;;;2.83;0.00;;;33.20;66.30;;;;;;5074763;28;20025;-78
2022/08/04 13:16:02;;;;;;;0.20;0.00;;;33.20;66.50;;;;;;5075476;28;20596;-78
2022/08/04 13:18:38;;;;;;;0.45;0.00;;;33.30;64.20;;;;;;5075648;28;20445;-78
2022/08/04 13:21:18;;;;;;;0.73;0.05;;;33.30;63.40;;;;;;5073844;28;20029;-78
2022/08/04 13:23:45;;;;;;;0.82;0.00;;;33.10;63.70;;;;;;5075561;28;20024;-78
2022/08/04 13:26:15;;;;;;;0.65;0.00;;;33.10;64.80;;;;;;5073566;28;20029;-78
2022/08/04 13:28:48;;;;;;;0.00;0.00;;;32.90;63.90;;;;;;5075015;28;20082;-78
2022/08/04 13:31:20;;;;;;;0.52;0.00;;;32.90;63.10;;;;;;5075286;28;20020;-78
2022/08/04 13:33:49;;;;;;;2.10;0.20;;;32.90;64.60;;;;;;5074494;28;20033;-78
2022/08/04 13:36:17;;;;;;;0.00;0.00;;;33.00;65.30;;;;;;5073498;28;20017;-78
2022/08/04 13:38:53;;;;;;;0.47;0.00;;;33.00;65.20;;;;;;5075645;28;20025;-78
2022/08/04 13:41:20;;;;;;;0.73;0.00;;;32.60;63.30;;;;;;5074625;28;20078;-78
2022/08/04 13:43:50;;;;;;;1.65;0.00;;;32.20;66.20;;;;;;5075166;28;20036;-78